Terminal Aerodrome Forecast
Issued by NWS Mt. Holly, NJ

Current Version | Previous Version | Text Only | Print | Product List | Glossary On
Versions: 1 2 3 4 5 6 7 8 9 10 11 12 13 14 15 16 17 18 19 20 21 22 23 24
643
FTUS41 KPHI 160333 AAF
TAFRDG
TAF AMD
KRDG 160333Z 1604/1624 24006KT P6SM SCT050
      TEMPO 1604/1607 4SM BR
     FM161600 24010G18KT P6SM BKN040
     FM162300 30006KT P6SM SCT040=

USA.gov is the U.S. government's official web portal to all federal, state and local government web resources and services.